Terminal Aerodrome Forecast
Issued by NWS Louisville, KY

Home | Current Version | Previous Version | Text Only | Print | Product List | Glossary On
Versions: 1 2 3 4 5 6 7 8 9 10 11 12 13 14 15 16 17 18
000
FTUS43 KLMK 231700
TAFLEX
TAF
KLEX 231732Z 2318/2418 17010KT 5SM BR VCSH OVC015
     FM232200 13006KT 5SM -SHRA BR OVC008
     FM240400 16010KT 3SM -SHRA VCTS OVC012CB
     FM241100 18015G22KT 5SM -SHRA BR BKN015=

USA.gov is the U.S. government's official web portal to all federal, state and local government web resources and services.